sensor_id;sensor_type;location;lat;lon;timestamp;P1;durP1;ratioP1;P2;durP2;ratioP2
1591;SDS011;789;51.612;7.510;2023-01-28T00:00:49;7.70;;;7.10;;
1591;SDS011;789;51.612;7.510;2023-01-28T00:03:17;8.20;;;7.50;;
1591;SDS011;789;51.612;7.510;2023-01-28T00:05:44;8.15;;;7.45;;
1591;SDS011;789;51.612;7.510;2023-01-28T00:08:10;7.35;;;6.65;;
1591;SDS011;789;51.612;7.510;2023-01-28T00:10:37;7.25;;;6.65;;
1591;SDS011;789;51.612;7.510;2023-01-28T00:13:04;7.40;;;6.80;;
1591;SDS011;789;51.612;7.510;2023-01-28T00:15:31;7.35;;;6.63;;
1591;SDS011;789;51.612;7.510;2023-01-28T00:17:57;7.70;;;7.00;;
1591;SDS011;789;51.612;7.510;2023-01-28T00:20:25;7.47;;;6.88;;
1591;SDS011;789;51.612;7.510;2023-01-28T00:22:52;6.57;;;5.97;;
1591;SDS011;789;51.612;7.510;2023-01-28T00:25:19;7.60;;;6.65;;
1591;SDS011;789;51.612;7.510;2023-01-28T00:27:46;7.10;;;6.50;;
1591;SDS011;789;51.612;7.510;2023-01-28T00:30:12;6.95;;;6.35;;
1591;SDS011;789;51.612;7.510;2023-01-28T00:32:39;7.75;;;6.85;;
1591;SDS011;789;51.612;7.510;2023-01-28T00:35:06;7.10;;;6.50;;
1591;SDS011;789;51.612;7.510;2023-01-28T00:37:35;7.80;;;6.97;;
1591;SDS011;789;51.612;7.510;2023-01-28T00:40:02;7.38;;;6.47;;
1591;SDS011;789;51.612;7.510;2023-01-28T00:42:29;9.93;;;6.80;;
1591;SDS011;789;51.612;7.510;2023-01-28T00:44:56;6.93;;;6.22;;
1591;SDS011;789;51.612;7.510;2023-01-28T00:47:23;7.15;;;6.55;;
1591;SDS011;789;51.612;7.510;2023-01-28T00:49:49;7.80;;;6.78;;
1591;SDS011;789;51.612;7.510;2023-01-28T00:52:16;9.52;;;6.38;;
1591;SDS011;789;51.612;7.510;2023-01-28T00:54:44;7.45;;;6.85;;
1591;SDS011;789;51.612;7.510;2023-01-28T00:57:10;6.93;;;6.20;;
1591;SDS011;789;51.612;7.510;2023-01-28T00:59:37;7.68;;;7.07;;
1591;SDS011;789;51.612;7.510;2023-01-28T01:02:04;7.53;;;6.80;;
1591;SDS011;789;51.612;7.510;2023-01-28T01:04:37;7.57;;;6.88;;
1591;SDS011;789;51.612;7.510;2023-01-28T01:07:04;8.00;;;6.82;;
1591;SDS011;789;51.612;7.510;2023-01-28T01:09:31;7.22;;;6.45;;
1591;SDS011;789;51.612;7.510;2023-01-28T01:11:59;7.88;;;7.07;;
1591;SDS011;789;51.612;7.510;2023-01-28T01:14:26;7.65;;;6.90;;
1591;SDS011;789;51.612;7.510;2023-01-28T01:16:52;7.70;;;7.00;;
1591;SDS011;789;51.612;7.510;2023-01-28T01:19:20;8.00;;;6.57;;
1591;SDS011;789;51.612;7.510;2023-01-28T01:21:46;9.55;;;6.40;;
1591;SDS011;789;51.612;7.510;2023-01-28T01:24:14;7.32;;;6.60;;
1591;SDS011;789;51.612;7.510;2023-01-28T01:26:41;8.13;;;7.07;;
1591;SDS011;789;51.612;7.510;2023-01-28T01:29:09;7.90;;;7.20;;
1591;SDS011;789;51.612;7.510;2023-01-28T01:31:36;7.03;;;6.43;;
1591;SDS011;789;51.612;7.510;2023-01-28T01:34:02;7.95;;;7.07;;
1591;SDS011;789;51.612;7.510;2023-01-28T01:36:29;8.02;;;7.20;;
1591;SDS011;789;51.612;7.510;2023-01-28T01:38:56;8.10;;;7.30;;
1591;SDS011;789;51.612;7.510;2023-01-28T01:41:25;6.57;;;6.07;;
1591;SDS011;789;51.612;7.510;2023-01-28T01:43:54;7.53;;;6.82;;
1591;SDS011;789;51.612;7.510;2023-01-28T01:46:25;7.43;;;6.57;;
1591;SDS011;789;51.612;7.510;2023-01-28T01:48:58;7.93;;;7.18;;
1591;SDS011;789;51.612;7.510;2023-01-28T01:51:31;6.97;;;6.38;;
1591;SDS011;789;51.612;7.510;2023-01-28T01:53:59;8.00;;;6.40;;
1591;SDS011;789;51.612;7.510;2023-01-28T01:56:29;7.68;;;6.95;;
1591;SDS011;789;51.612;7.510;2023-01-28T01:59:00;8.43;;;7.30;;
1591;SDS011;789;51.612;7.510;2023-01-28T02:01:30;7.90;;;6.88;;
1591;SDS011;789;51.612;7.510;2023-01-28T02:04:00;7.00;;;6.40;;
1591;SDS011;789;51.612;7.510;2023-01-28T02:06:31;7.30;;;6.60;;
1591;SDS011;789;51.612;7.510;2023-01-28T02:08:59;10.25;;;6.95;;
1591;SDS011;789;51.612;7.510;2023-01-28T02:11:28;9.15;;;7.25;;
1591;SDS011;789;51.612;7.510;2023-01-28T02:13:57;8.48;;;6.35;;
1591;SDS011;789;51.612;7.510;2023-01-28T02:16:27;6.70;;;6.15;;
1591;SDS011;789;51.612;7.510;2023-01-28T02:18:56;7.00;;;6.40;;
1591;SDS011;789;51.612;7.510;2023-01-28T02:21:30;8.82;;;7.38;;
1591;SDS011;789;51.612;7.510;2023-01-28T02:27:15;7.50;;;6.80;;
1591;SDS011;789;51.612;7.510;2023-01-28T02:29:51;8.02;;;7.32;;
1591;SDS011;789;51.612;7.510;2023-01-28T02:32:24;7.25;;;6.55;;
1591;SDS011;789;51.612;7.510;2023-01-28T02:34:57;7.32;;;6.65;;
1591;SDS011;789;51.612;7.510;2023-01-28T02:37:33;7.47;;;6.82;;
1591;SDS011;789;51.612;7.510;2023-01-28T02:40:05;8.10;;;7.35;;
1591;SDS011;789;51.612;7.510;2023-01-28T02:42:36;8.15;;;7.43;;
1591;SDS011;789;51.612;7.510;2023-01-28T02:45:10;8.18;;;7.38;;
1591;SDS011;789;51.612;7.510;2023-01-28T02:47:43;8.15;;;7.32;;
1591;SDS011;789;51.612;7.510;2023-01-28T02:50:25;7.95;;;7.15;;
1591;SDS011;789;51.612;7.510;2023-01-28T02:53:04;7.00;;;6.45;;
1591;SDS011;789;51.612;7.510;2023-01-28T02:55:56;8.15;;;7.05;;
1591;SDS011;789;51.612;7.510;2023-01-28T02:58:34;8.75;;;8.02;;
1591;SDS011;789;51.612;7.510;2023-01-28T03:01:07;7.55;;;6.85;;
1591;SDS011;789;51.612;7.510;2023-01-28T03:03:43;8.10;;;7.40;;
1591;SDS011;789;51.612;7.510;2023-01-28T03:06:17;8.00;;;7.30;;
1591;SDS011;789;51.612;7.510;2023-01-28T03:08:49;10.15;;;6.68;;
1591;SDS011;789;51.612;7.510;2023-01-28T03:11:39;8.13;;;7.43;;
1591;SDS011;789;51.612;7.510;2023-01-28T03:14:25;8.13;;;7.22;;
1591;SDS011;789;51.612;7.510;2023-01-28T03:17:13;8.05;;;7.38;;
1591;SDS011;789;51.612;7.510;2023-01-28T03:19:59;9.13;;;7.55;;
1591;SDS011;789;51.612;7.510;2023-01-28T03:22:44;7.75;;;7.05;;
1591;SDS011;789;51.612;7.510;2023-01-28T03:25:34;8.10;;;7.30;;
1591;SDS011;789;51.612;7.510;2023-01-28T03:28:20;10.27;;;8.40;;
1591;SDS011;789;51.612;7.510;2023-01-28T03:31:06;8.95;;;8.05;;
1591;SDS011;789;51.612;7.510;2023-01-28T03:33:54;9.18;;;8.38;;
1591;SDS011;789;51.612;7.510;2023-01-28T03:36:41;8.90;;;8.10;;
1591;SDS011;789;51.612;7.510;2023-01-28T03:39:13;8.15;;;7.35;;
1591;SDS011;789;51.612;7.510;2023-01-28T03:41:40;10.10;;;7.55;;
1591;SDS011;789;51.612;7.510;2023-01-28T03:44:08;7.85;;;7.13;;
1591;SDS011;789;51.612;7.510;2023-01-28T03:46:52;9.15;;;8.35;;
1591;SDS011;789;51.612;7.510;2023-01-28T03:49:20;7.78;;;7.07;;
1591;SDS011;789;51.612;7.510;2023-01-28T03:51:46;19.50;;;8.68;;
1591;SDS011;789;51.612;7.510;2023-01-28T03:54:13;8.05;;;7.35;;
1591;SDS011;789;51.612;7.510;2023-01-28T03:56:40;9.65;;;7.80;;
1591;SDS011;789;51.612;7.510;2023-01-28T03:59:06;9.73;;;8.73;;
1591;SDS011;789;51.612;7.510;2023-01-28T04:01:33;12.68;;;8.10;;
1591;SDS011;789;51.612;7.510;2023-01-28T04:04:00;9.68;;;8.80;;
1591;SDS011;789;51.612;7.510;2023-01-28T04:06:28;10.77;;;9.68;;
1591;SDS011;789;51.612;7.510;2023-01-28T04:08:55;9.68;;;8.73;;
1591;SDS011;789;51.612;7.510;2023-01-28T04:11:23;8.77;;;7.95;;
1591;SDS011;789;51.612;7.510;2023-01-28T04:13:50;9.95;;;8.98;;
1591;SDS011;789;51.612;7.510;2023-01-28T04:16:18;12.40;;;9.07;;
1591;SDS011;789;51.612;7.510;2023-01-28T04:18:45;9.57;;;8.68;;
1591;SDS011;789;51.612;7.510;2023-01-28T04:21:12;10.65;;;8.70;;
1591;SDS011;789;51.612;7.510;2023-01-28T04:23:40;10.93;;;9.98;;
1591;SDS011;789;51.612;7.510;2023-01-28T04:26:07;10.15;;;9.07;;
1591;SDS011;789;51.612;7.510;2023-01-28T04:28:33;11.40;;;10.20;;
1591;SDS011;789;51.612;7.510;2023-01-28T04:31:00;10.48;;;9.38;;
1591;SDS011;789;51.612;7.510;2023-01-28T04:33:27;10.35;;;9.35;;
1591;SDS011;789;51.612;7.510;2023-01-28T04:35:54;16.90;;;9.75;;
1591;SDS011;789;51.612;7.510;2023-01-28T04:38:20;10.27;;;9.32;;
1591;SDS011;789;51.612;7.510;2023-01-28T04:40:52;11.77;;;9.15;;
1591;SDS011;789;51.612;7.510;2023-01-28T04:43:19;9.27;;;8.38;;
1591;SDS011;789;51.612;7.510;2023-01-28T04:45:46;10.52;;;9.25;;
1591;SDS011;789;51.612;7.510;2023-01-28T04:48:13;10.45;;;8.55;;
1591;SDS011;789;51.612;7.510;2023-01-28T04:50:41;9.85;;;8.73;;
1591;SDS011;789;51.612;7.510;2023-01-28T04:53:08;9.52;;;8.63;;
1591;SDS011;789;51.612;7.510;2023-01-28T04:55:35;10.90;;;9.43;;
1591;SDS011;789;51.612;7.510;2023-01-28T04:58:03;8.88;;;8.05;;
1591;SDS011;789;51.612;7.510;2023-01-28T05:00:32;9.40;;;7.95;;
1591;SDS011;789;51.612;7.510;2023-01-28T05:02:59;9.82;;;8.93;;
1591;SDS011;789;51.612;7.510;2023-01-28T05:05:25;10.63;;;9.68;;
1591;SDS011;789;51.612;7.510;2023-01-28T05:07:52;11.07;;;9.98;;
1591;SDS011;789;51.612;7.510;2023-01-28T05:10:20;11.65;;;9.15;;
1591;SDS011;789;51.612;7.510;2023-01-28T05:12:47;10.10;;;9.13;;
1591;SDS011;789;51.612;7.510;2023-01-28T05:15:16;9.77;;;8.88;;
1591;SDS011;789;51.612;7.510;2023-01-28T05:17:44;9.30;;;8.40;;
1591;SDS011;789;51.612;7.510;2023-01-28T05:20:11;8.80;;;8.00;;
1591;SDS011;789;51.612;7.510;2023-01-28T05:22:39;7.70;;;6.90;;
1591;SDS011;789;51.612;7.510;2023-01-28T05:25:06;7.75;;;7.05;;
1591;SDS011;789;51.612;7.510;2023-01-28T05:27:34;10.80;;;8.15;;
1591;SDS011;789;51.612;7.510;2023-01-28T05:30:01;10.35;;;8.00;;
1591;SDS011;789;51.612;7.510;2023-01-28T05:32:29;9.27;;;8.38;;
1591;SDS011;789;51.612;7.510;2023-01-28T05:34:55;9.65;;;8.68;;
1591;SDS011;789;51.612;7.510;2023-01-28T05:37:22;9.73;;;8.70;;
1591;SDS011;789;51.612;7.510;2023-01-28T05:39:49;10.38;;;9.27;;
1591;SDS011;789;51.612;7.510;2023-01-28T05:42:16;10.50;;;8.82;;
1591;SDS011;789;51.612;7.510;2023-01-28T05:44:44;10.15;;;8.10;;
1591;SDS011;789;51.612;7.510;2023-01-28T05:47:11;9.27;;;8.30;;
1591;SDS011;789;51.612;7.510;2023-01-28T05:49:39;14.45;;;9.90;;
1591;SDS011;789;51.612;7.510;2023-01-28T05:52:06;9.85;;;8.98;;
1591;SDS011;789;51.612;7.510;2023-01-28T05:54:32;12.90;;;9.10;;
1591;SDS011;789;51.612;7.510;2023-01-28T05:56:59;9.10;;;8.20;;
1591;SDS011;789;51.612;7.510;2023-01-28T05:59:26;8.35;;;7.60;;
1591;SDS011;789;51.612;7.510;2023-01-28T06:01:53;9.63;;;8.73;;
1591;SDS011;789;51.612;7.510;2023-01-28T06:04:19;9.40;;;8.50;;
1591;SDS011;789;51.612;7.510;2023-01-28T06:06:47;9.48;;;8.57;;
1591;SDS011;789;51.612;7.510;2023-01-28T06:09:14;9.77;;;8.43;;
1591;SDS011;789;51.612;7.510;2023-01-28T06:11:41;8.95;;;8.20;;
1591;SDS011;789;51.612;7.510;2023-01-28T06:14:09;8.80;;;7.90;;
1591;SDS011;789;51.612;7.510;2023-01-28T06:16:35;12.68;;;8.23;;
1591;SDS011;789;51.612;7.510;2023-01-28T06:19:02;8.38;;;7.68;;
1591;SDS011;789;51.612;7.510;2023-01-28T06:21:29;8.05;;;7.40;;
1591;SDS011;789;51.612;7.510;2023-01-28T06:23:57;8.30;;;7.60;;
1591;SDS011;789;51.612;7.510;2023-01-28T06:26:24;9.27;;;7.60;;
1591;SDS011;789;51.612;7.510;2023-01-28T06:28:50;8.90;;;8.05;;
1591;SDS011;789;51.612;7.510;2023-01-28T06:31:17;9.02;;;8.20;;
1591;SDS011;789;51.612;7.510;2023-01-28T06:33:44;9.90;;;8.05;;
1591;SDS011;789;51.612;7.510;2023-01-28T06:36:13;10.13;;;7.95;;
1591;SDS011;789;51.612;7.510;2023-01-28T06:38:40;9.60;;;7.78;;
1591;SDS011;789;51.612;7.510;2023-01-28T06:41:08;9.02;;;8.18;;
1591;SDS011;789;51.612;7.510;2023-01-28T06:43:35;8.70;;;7.93;;
1591;SDS011;789;51.612;7.510;2023-01-28T06:46:01;9.02;;;7.78;;
1591;SDS011;789;51.612;7.510;2023-01-28T06:48:28;8.63;;;7.90;;
1591;SDS011;789;51.612;7.510;2023-01-28T06:50:55;11.70;;;8.40;;
1591;SDS011;789;51.612;7.510;2023-01-28T06:53:21;10.00;;;7.88;;
1591;SDS011;789;51.612;7.510;2023-01-28T06:55:48;9.57;;;8.25;;
1591;SDS011;789;51.612;7.510;2023-01-28T06:58:18;14.02;;;8.07;;
1591;SDS011;789;51.612;7.510;2023-01-28T07:00:45;8.68;;;7.97;;
1591;SDS011;789;51.612;7.510;2023-01-28T07:03:11;11.82;;;9.35;;
1591;SDS011;789;51.612;7.510;2023-01-28T07:05:38;9.88;;;8.88;;
1591;SDS011;789;51.612;7.510;2023-01-28T07:08:05;9.55;;;8.32;;
1591;SDS011;789;51.612;7.510;2023-01-28T07:10:31;8.90;;;8.00;;
1591;SDS011;789;51.612;7.510;2023-01-28T07:12:59;9.13;;;8.10;;
1591;SDS011;789;51.612;7.510;2023-01-28T07:15:27;10.00;;;8.40;;
1591;SDS011;789;51.612;7.510;2023-01-28T07:17:53;9.15;;;8.25;;
1591;SDS011;789;51.612;7.510;2023-01-28T07:20:20;8.15;;;7.35;;
1591;SDS011;789;51.612;7.510;2023-01-28T07:22:47;8.73;;;7.88;;
1591;SDS011;789;51.612;7.510;2023-01-28T07:25:14;8.60;;;7.80;;
1591;SDS011;789;51.612;7.510;2023-01-28T07:27:47;11.00;;;8.23;;
1591;SDS011;789;51.612;7.510;2023-01-28T07:30:15;10.45;;;8.05;;
1591;SDS011;789;51.612;7.510;2023-01-28T07:32:45;9.60;;;8.60;;
1591;SDS011;789;51.612;7.510;2023-01-28T07:35:12;7.90;;;7.20;;
1591;SDS011;789;51.612;7.510;2023-01-28T07:37:39;9.63;;;8.63;;
1591;SDS011;789;51.612;7.510;2023-01-28T07:40:07;10.15;;;7.60;;
1591;SDS011;789;51.612;7.510;2023-01-28T07:42:34;9.55;;;8.20;;
1591;SDS011;789;51.612;7.510;2023-01-28T07:45:01;8.65;;;7.75;;
1591;SDS011;789;51.612;7.510;2023-01-28T07:47:29;9.50;;;7.88;;
1591;SDS011;789;51.612;7.510;2023-01-28T07:49:57;7.90;;;7.20;;
1591;SDS011;789;51.612;7.510;2023-01-28T07:52:23;8.40;;;7.60;;
1591;SDS011;789;51.612;7.510;2023-01-28T07:54:50;8.30;;;7.50;;
1591;SDS011;789;51.612;7.510;2023-01-28T07:57:17;8.45;;;7.72;;
1591;SDS011;789;51.612;7.510;2023-01-28T07:59:47;11.18;;;8.65;;
1591;SDS011;789;51.612;7.510;2023-01-28T08:02:14;11.20;;;8.85;;
1591;SDS011;789;51.612;7.510;2023-01-28T08:04:42;13.80;;;8.40;;
1591;SDS011;789;51.612;7.510;2023-01-28T08:07:10;15.07;;;7.70;;
1591;SDS011;789;51.612;7.510;2023-01-28T08:09:36;12.02;;;7.40;;
1591;SDS011;789;51.612;7.510;2023-01-28T08:12:03;11.15;;;7.75;;
1591;SDS011;789;51.612;7.510;2023-01-28T08:14:30;9.30;;;8.40;;
1591;SDS011;789;51.612;7.510;2023-01-28T08:16:57;8.32;;;7.40;;
1591;SDS011;789;51.612;7.510;2023-01-28T08:19:24;8.25;;;7.40;;
1591;SDS011;789;51.612;7.510;2023-01-28T08:21:50;8.75;;;7.50;;
1591;SDS011;789;51.612;7.510;2023-01-28T08:24:20;10.18;;;7.95;;
1591;SDS011;789;51.612;7.510;2023-01-28T08:26:46;8.52;;;7.82;;
1591;SDS011;789;51.612;7.510;2023-01-28T08:29:13;9.27;;;8.38;;
1591;SDS011;789;51.612;7.510;2023-01-28T08:31:40;11.05;;;10.05;;
1591;SDS011;789;51.612;7.510;2023-01-28T08:34:07;9.02;;;8.00;;
1591;SDS011;789;51.612;7.510;2023-01-28T08:36:33;9.68;;;8.68;;
1591;SDS011;789;51.612;7.510;2023-01-28T08:39:00;10.63;;;8.02;;
1591;SDS011;789;51.612;7.510;2023-01-28T08:41:29;11.13;;;8.90;;
1591;SDS011;789;51.612;7.510;2023-01-28T08:43:56;8.35;;;7.55;;
1591;SDS011;789;51.612;7.510;2023-01-28T08:46:23;9.95;;;7.95;;
1591;SDS011;789;51.612;7.510;2023-01-28T08:48:49;8.45;;;7.65;;
1591;SDS011;789;51.612;7.510;2023-01-28T08:51:19;8.38;;;7.20;;
1591;SDS011;789;51.612;7.510;2023-01-28T08:53:46;12.23;;;8.50;;
1591;SDS011;789;51.612;7.510;2023-01-28T08:56:12;10.13;;;7.80;;
1591;SDS011;789;51.612;7.510;2023-01-28T08:58:41;9.45;;;8.43;;
1591;SDS011;789;51.612;7.510;2023-01-28T09:01:09;7.88;;;7.10;;
1591;SDS011;789;51.612;7.510;2023-01-28T09:03:35;8.50;;;7.70;;
1591;SDS011;789;51.612;7.510;2023-01-28T09:06:03;9.73;;;8.25;;
1591;SDS011;789;51.612;7.510;2023-01-28T09:08:30;9.95;;;8.30;;
1591;SDS011;789;51.612;7.510;2023-01-28T09:10:59;11.45;;;8.13;;
1591;SDS011;789;51.612;7.510;2023-01-28T09:13:26;8.63;;;7.80;;
1591;SDS011;789;51.612;7.510;2023-01-28T09:15:55;8.55;;;7.80;;
1591;SDS011;789;51.612;7.510;2023-01-28T09:18:22;11.00;;;8.88;;
1591;SDS011;789;51.612;7.510;2023-01-28T09:20:49;9.05;;;8.25;;
1591;SDS011;789;51.612;7.510;2023-01-28T09:23:17;19.88;;;10.40;;
1591;SDS011;789;51.612;7.510;2023-01-28T09:25:44;10.77;;;8.50;;
1591;SDS011;789;51.612;7.510;2023-01-28T09:28:11;10.30;;;7.65;;
1591;SDS011;789;51.612;7.510;2023-01-28T09:30:38;8.38;;;7.47;;
1591;SDS011;789;51.612;7.510;2023-01-28T09:33:06;8.57;;;7.68;;
1591;SDS011;789;51.612;7.510;2023-01-28T09:35:33;11.48;;;7.93;;
1591;SDS011;789;51.612;7.510;2023-01-28T09:38:00;7.97;;;7.28;;
1591;SDS011;789;51.612;7.510;2023-01-28T09:40:29;10.48;;;7.45;;
1591;SDS011;789;51.612;7.510;2023-01-28T09:43:07;9.70;;;7.70;;
1591;SDS011;789;51.612;7.510;2023-01-28T09:45:55;8.25;;;6.82;;
1591;SDS011;789;51.612;7.510;2023-01-28T09:48:27;8.88;;;7.97;;
1591;SDS011;789;51.612;7.510;2023-01-28T09:50:57;9.63;;;7.30;;
1591;SDS011;789;51.612;7.510;2023-01-28T09:53:27;11.13;;;8.50;;
1591;SDS011;789;51.612;7.510;2023-01-28T09:55:56;9.02;;;8.13;;
1591;SDS011;789;51.612;7.510;2023-01-28T09:58:26;12.82;;;9.50;;
1591;SDS011;789;51.612;7.510;2023-01-28T10:00:55;8.55;;;7.60;;
1591;SDS011;789;51.612;7.510;2023-01-28T10:06:25;9.35;;;8.35;;
1591;SDS011;789;51.612;7.510;2023-01-28T10:09:07;9.07;;;8.25;;
1591;SDS011;789;51.612;7.510;2023-01-28T10:12:02;8.82;;;7.90;;
1591;SDS011;789;51.612;7.510;2023-01-28T10:14:42;10.80;;;8.75;;
1591;SDS011;789;51.612;7.510;2023-01-28T10:17:19;10.65;;;8.73;;
1591;SDS011;789;51.612;7.510;2023-01-28T10:19:54;11.07;;;9.48;;
1591;SDS011;789;51.612;7.510;2023-01-28T10:22:26;10.40;;;9.50;;
1591;SDS011;789;51.612;7.510;2023-01-28T10:24:57;10.05;;;9.15;;
1591;SDS011;789;51.612;7.510;2023-01-28T10:27:31;10.43;;;9.52;;
1591;SDS011;789;51.612;7.510;2023-01-28T10:29:59;10.60;;;9.55;;
1591;SDS011;789;51.612;7.510;2023-01-28T10:32:43;10.93;;;9.57;;
1591;SDS011;789;51.612;7.510;2023-01-28T10:35:16;13.50;;;9.60;;
1591;SDS011;789;51.612;7.510;2023-01-28T10:37:43;11.32;;;10.13;;
1591;SDS011;789;51.612;7.510;2023-01-28T10:40:11;11.75;;;10.52;;
1591;SDS011;789;51.612;7.510;2023-01-28T10:42:40;11.32;;;10.02;;
1591;SDS011;789;51.612;7.510;2023-01-28T10:45:07;11.43;;;10.15;;
1591;SDS011;789;51.612;7.510;2023-01-28T10:47:43;12.30;;;10.65;;
1591;SDS011;789;51.612;7.510;2023-01-28T10:52:52;11.93;;;10.65;;
1591;SDS011;789;51.612;7.510;2023-01-28T10:55:19;15.13;;;10.52;;
1591;SDS011;789;51.612;7.510;2023-01-28T10:57:47;11.40;;;10.30;;
1591;SDS011;789;51.612;7.510;2023-01-28T11:00:34;11.02;;;9.90;;
1591;SDS011;789;51.612;7.510;2023-01-28T11:03:17;12.50;;;11.20;;
1591;SDS011;789;51.612;7.510;2023-01-28T11:05:51;11.30;;;10.30;;
1591;SDS011;789;51.612;7.510;2023-01-28T11:08:21;20.52;;;11.48;;
1591;SDS011;789;51.612;7.510;2023-01-28T11:10:49;12.45;;;10.90;;
1591;SDS011;789;51.612;7.510;2023-01-28T11:13:17;20.02;;;11.68;;
1591;SDS011;789;51.612;7.510;2023-01-28T11:15:46;10.90;;;9.80;;
1591;SDS011;789;51.612;7.510;2023-01-28T11:18:16;10.95;;;9.68;;
1591;SDS011;789;51.612;7.510;2023-01-28T11:20:48;11.05;;;9.95;;
1591;SDS011;789;51.612;7.510;2023-01-28T11:23:18;9.95;;;9.05;;
1591;SDS011;789;51.612;7.510;2023-01-28T11:25:57;10.55;;;9.27;;
1591;SDS011;789;51.612;7.510;2023-01-28T11:28:31;9.68;;;8.85;;
1591;SDS011;789;51.612;7.510;2023-01-28T11:31:06;10.05;;;9.15;;
1591;SDS011;789;51.612;7.510;2023-01-28T11:33:35;13.02;;;9.65;;
1591;SDS011;789;51.612;7.510;2023-01-28T11:36:04;14.38;;;10.05;;
1591;SDS011;789;51.612;7.510;2023-01-28T11:38:35;10.80;;;9.90;;
1591;SDS011;789;51.612;7.510;2023-01-28T11:41:01;11.65;;;10.35;;
1591;SDS011;789;51.612;7.510;2023-01-28T11:43:28;12.57;;;10.77;;
1591;SDS011;789;51.612;7.510;2023-01-28T11:45:59;12.57;;;10.30;;
1591;SDS011;789;51.612;7.510;2023-01-28T11:48:45;10.90;;;9.65;;
1591;SDS011;789;51.612;7.510;2023-01-28T11:51:25;12.73;;;11.40;;
1591;SDS011;789;51.612;7.510;2023-01-28T11:54:03;11.93;;;10.63;;
1591;SDS011;789;51.612;7.510;2023-01-28T11:56:45;13.50;;;12.07;;
1591;SDS011;789;51.612;7.510;2023-01-28T11:59:26;16.55;;;11.48;;
1591;SDS011;789;51.612;7.510;2023-01-28T12:02:08;13.55;;;11.75;;
1591;SDS011;789;51.612;7.510;2023-01-28T12:04:49;14.85;;;11.55;;
1591;SDS011;789;51.612;7.510;2023-01-28T12:07:32;13.10;;;11.57;;
1591;SDS011;789;51.612;7.510;2023-01-28T12:12:55;16.38;;;12.38;;
1591;SDS011;789;51.612;7.510;2023-01-28T12:15:49;12.55;;;11.27;;
1591;SDS011;789;51.612;7.510;2023-01-28T12:18:31;12.18;;;10.55;;
1591;SDS011;789;51.612;7.510;2023-01-28T12:21:21;14.60;;;11.30;;
1591;SDS011;789;51.612;7.510;2023-01-28T12:23:57;12.13;;;10.02;;
1591;SDS011;789;51.612;7.510;2023-01-28T12:26:39;13.05;;;11.60;;
1591;SDS011;789;51.612;7.510;2023-01-28T12:29:15;13.65;;;11.95;;
1591;SDS011;789;51.612;7.510;2023-01-28T12:31:53;11.77;;;10.45;;
1591;SDS011;789;51.612;7.510;2023-01-28T12:34:36;13.90;;;11.05;;
1591;SDS011;789;51.612;7.510;2023-01-28T12:37:19;13.10;;;11.50;;
1591;SDS011;789;51.612;7.510;2023-01-28T12:39:58;11.50;;;10.17;;
1591;SDS011;789;51.612;7.510;2023-01-28T12:42:44;12.83;;;11.17;;
1591;SDS011;789;51.612;7.510;2023-01-28T12:45:17;13.32;;;11.32;;
1591;SDS011;789;51.612;7.510;2023-01-28T12:47:49;16.02;;;10.63;;
1591;SDS011;789;51.612;7.510;2023-01-28T12:50:21;15.60;;;12.37;;
1591;SDS011;789;51.612;7.510;2023-01-28T12:52:52;12.53;;;11.30;;
1591;SDS011;789;51.612;7.510;2023-01-28T12:55:26;14.00;;;11.90;;
1591;SDS011;789;51.612;7.510;2023-01-28T12:58:04;14.07;;;12.70;;
1591;SDS011;789;51.612;7.510;2023-01-28T13:00:33;13.73;;;12.33;;
1591;SDS011;789;51.612;7.510;2023-01-28T13:03:07;13.80;;;12.33;;
1591;SDS011;789;51.612;7.510;2023-01-28T13:05:40;14.40;;;12.90;;
1591;SDS011;789;51.612;7.510;2023-01-28T13:08:12;15.23;;;13.70;;
1591;SDS011;789;51.612;7.510;2023-01-28T13:10:44;13.73;;;12.40;;
1591;SDS011;789;51.612;7.510;2023-01-28T13:13:16;13.37;;;12.10;;
1591;SDS011;789;51.612;7.510;2023-01-28T13:15:52;14.40;;;13.00;;
1591;SDS011;789;51.612;7.510;2023-01-28T13:21:11;14.40;;;12.97;;
1591;SDS011;789;51.612;7.510;2023-01-28T13:23:41;14.57;;;13.10;;
1591;SDS011;789;51.612;7.510;2023-01-28T13:26:23;16.00;;;13.50;;
1591;SDS011;789;51.612;7.510;2023-01-28T13:29:05;14.27;;;12.93;;
1591;SDS011;789;51.612;7.510;2023-01-28T13:31:38;14.03;;;12.73;;
1591;SDS011;789;51.612;7.510;2023-01-28T13:34:07;13.85;;;12.50;;
1591;SDS011;789;51.612;7.510;2023-01-28T13:36:43;15.05;;;13.02;;
1591;SDS011;789;51.612;7.510;2023-01-28T13:39:14;14.63;;;13.25;;
1591;SDS011;789;51.612;7.510;2023-01-28T13:41:50;15.67;;;14.07;;
1591;SDS011;789;51.612;7.510;2023-01-28T13:44:26;22.03;;;14.83;;
1591;SDS011;789;51.612;7.510;2023-01-28T13:46:55;17.05;;;13.85;;
1591;SDS011;789;51.612;7.510;2023-01-28T13:49:25;15.05;;;13.57;;
1591;SDS011;789;51.612;7.510;2023-01-28T13:52:05;17.23;;;13.50;;
1591;SDS011;789;51.612;7.510;2023-01-28T13:54:39;20.65;;;15.32;;
1591;SDS011;789;51.612;7.510;2023-01-28T13:57:16;18.70;;;15.55;;
1591;SDS011;789;51.612;7.510;2023-01-28T14:00:01;17.80;;;15.68;;
1591;SDS011;789;51.612;7.510;2023-01-28T14:02:51;23.92;;;16.65;;
1591;SDS011;789;51.612;7.510;2023-01-28T14:12:05;21.25;;;15.02;;
1591;SDS011;789;51.612;7.510;2023-01-28T14:17:44;20.42;;;15.82;;
1591;SDS011;789;51.612;7.510;2023-01-28T14:20:15;17.50;;;15.15;;
1591;SDS011;789;51.612;7.510;2023-01-28T14:22:48;22.10;;;16.00;;
1591;SDS011;789;51.612;7.510;2023-01-28T14:25:21;19.40;;;15.02;;
1591;SDS011;789;51.612;7.510;2023-01-28T14:28:00;21.38;;;16.05;;
1591;SDS011;789;51.612;7.510;2023-01-28T14:30:35;20.77;;;14.75;;
1591;SDS011;789;51.612;7.510;2023-01-28T14:33:09;19.02;;;15.35;;
1591;SDS011;789;51.612;7.510;2023-01-28T14:35:38;23.45;;;16.60;;
1591;SDS011;789;51.612;7.510;2023-01-28T14:38:11;24.20;;;17.13;;
1591;SDS011;789;51.612;7.510;2023-01-28T14:40:40;25.27;;;18.07;;
1591;SDS011;789;51.612;7.510;2023-01-28T14:43:10;24.40;;;18.08;;
1591;SDS011;789;51.612;7.510;2023-01-28T14:45:49;21.00;;;16.42;;
1591;SDS011;789;51.612;7.510;2023-01-28T14:48:27;21.83;;;17.08;;
1591;SDS011;789;51.612;7.510;2023-01-28T14:51:08;30.90;;;19.20;;
1591;SDS011;789;51.612;7.510;2023-01-28T14:54:03;27.95;;;18.65;;
1591;SDS011;789;51.612;7.510;2023-01-28T14:56:43;24.80;;;17.92;;
1591;SDS011;789;51.612;7.510;2023-01-28T14:59:24;26.77;;;18.20;;
1591;SDS011;789;51.612;7.510;2023-01-28T15:01:57;23.95;;;18.52;;
1591;SDS011;789;51.612;7.510;2023-01-28T15:04:24;25.70;;;18.65;;
1591;SDS011;789;51.612;7.510;2023-01-28T15:06:52;25.70;;;19.00;;
1591;SDS011;789;51.612;7.510;2023-01-28T15:09:21;24.90;;;18.08;;
1591;SDS011;789;51.612;7.510;2023-01-28T15:11:49;29.50;;;19.80;;
1591;SDS011;789;51.612;7.510;2023-01-28T15:14:21;31.30;;;20.73;;
1591;SDS011;789;51.612;7.510;2023-01-28T15:16:51;27.38;;;19.75;;
1591;SDS011;789;51.612;7.510;2023-01-28T15:19:24;28.98;;;19.65;;
1591;SDS011;789;51.612;7.510;2023-01-28T15:21:53;28.35;;;20.15;;
1591;SDS011;789;51.612;7.510;2023-01-28T15:24:24;29.75;;;20.13;;
1591;SDS011;789;51.612;7.510;2023-01-28T15:26:52;31.83;;;20.60;;
1591;SDS011;789;51.612;7.510;2023-01-28T15:29:21;32.47;;;20.98;;
1591;SDS011;789;51.612;7.510;2023-01-28T15:31:49;35.10;;;21.55;;
1591;SDS011;789;51.612;7.510;2023-01-28T15:34:16;34.08;;;21.33;;
1591;SDS011;789;51.612;7.510;2023-01-28T15:36:45;31.00;;;20.23;;
1591;SDS011;789;51.612;7.510;2023-01-28T15:39:14;30.38;;;20.95;;
1591;SDS011;789;51.612;7.510;2023-01-28T15:41:43;30.15;;;20.65;;
1591;SDS011;789;51.612;7.510;2023-01-28T15:44:20;29.52;;;19.00;;
1591;SDS011;789;51.612;7.510;2023-01-28T15:46:54;30.88;;;20.50;;
1591;SDS011;789;51.612;7.510;2023-01-28T15:49:21;32.85;;;20.95;;
1591;SDS011;789;51.612;7.510;2023-01-28T15:51:53;31.38;;;19.23;;
1591;SDS011;789;51.612;7.510;2023-01-28T15:54:20;30.42;;;20.40;;
1591;SDS011;789;51.612;7.510;2023-01-28T15:56:47;27.55;;;20.08;;
1591;SDS011;789;51.612;7.510;2023-01-28T15:59:18;30.90;;;21.08;;
1591;SDS011;789;51.612;7.510;2023-01-28T16:01:50;26.85;;;18.85;;
1591;SDS011;789;51.612;7.510;2023-01-28T16:04:28;28.52;;;19.23;;